Current Weather

Abu Dhabi Intl

Abu Dhabi Intl, United Arab Emirates (OMAA)

Report from: Thursday, July 18, 2024 2:00 PM UTC
Current time: Thursday, July 18, 2024 2:21 PM UTC

Nearby weather – Weather history – Daily summaries
Weather forecast

Temperature37.0°C (98.6°F)
Heat index51.6°C (124.9°F)
Dew point28.0°C (82.4°F)
Winds 12 kts (6.2 m/s, 13.8 mph) West-Northwest (290°)
Clouds Sky clear
Altimeter29.32 in.Hg (993 mB)
Relative humidity60 %
Density altitude3,669 ft. (1,118 m)
Remarks Ceiling and visibility OK
No significant changes expected in the next two hours
Flight conditions Visual Meteorological Conditions
Raw dataOMAA 181400Z 29012KT CAVOK 37/28 Q0993 NOSIG
An error has occurred. This application may no longer respond until reloaded. Reload 🗙